sensor_id;sensor_type;location;lat;lon;timestamp;pressure;altitude;pressure_sealevel;temperature;humidity
77543;BME280;66669;52.100;5.104;2023-02-21T00:01:25;102009.66;;;23.47;37.74
77543;BME280;66669;52.100;5.104;2023-02-21T00:04:08;102022.13;;;23.49;37.95
77543;BME280;66669;52.100;5.104;2023-02-21T00:06:52;102022.94;;;23.50;38.07
77543;BME280;66669;52.100;5.104;2023-02-21T00:09:38;102006.94;;;23.50;37.85
77543;BME280;66669;52.100;5.104;2023-02-21T00:12:22;102013.44;;;23.54;37.84
77543;BME280;66669;52.100;5.104;2023-02-21T00:15:06;102004.69;;;23.56;37.89
77543;BME280;66669;52.100;5.104;2023-02-21T00:17:50;102020.28;;;23.57;37.99
77543;BME280;66669;52.100;5.104;2023-02-21T00:20:34;102014.31;;;23.58;37.67
77543;BME280;66669;52.100;5.104;2023-02-21T00:23:18;102018.72;;;23.59;37.61
77543;BME280;66669;52.100;5.104;2023-02-21T00:26:02;102015.13;;;23.59;37.54
77543;BME280;66669;52.100;5.104;2023-02-21T00:28:46;102012.78;;;23.61;37.65
77543;BME280;66669;52.100;5.104;2023-02-21T00:31:29;102012.78;;;23.61;37.58
77543;BME280;66669;52.100;5.104;2023-02-21T00:34:13;102004.00;;;23.62;37.54
77543;BME280;66669;52.100;5.104;2023-02-21T00:36:57;102008.41;;;23.63;37.51
77543;BME280;66669;52.100;5.104;2023-02-21T00:39:41;102007.25;;;23.64;37.50
77543;BME280;66669;52.100;5.104;2023-02-21T00:42:25;102005.28;;;23.65;37.49
77543;BME280;66669;52.100;5.104;2023-02-21T00:45:09;102007.72;;;23.67;37.41
77543;BME280;66669;52.100;5.104;2023-02-21T00:47:53;102014.56;;;23.69;37.45
77543;BME280;66669;52.100;5.104;2023-02-21T00:50:37;101995.34;;;23.68;37.40
77543;BME280;66669;52.100;5.104;2023-02-21T00:53:23;102003.38;;;23.69;37.54
77543;BME280;66669;52.100;5.104;2023-02-21T00:56:07;102008.97;;;23.69;37.77
77543;BME280;66669;52.100;5.104;2023-02-21T00:58:51;102009.41;;;23.71;37.66
77543;BME280;66669;52.100;5.104;2023-02-21T01:01:35;102000.19;;;23.71;37.46
77543;BME280;66669;52.100;5.104;2023-02-21T01:04:19;102006.69;;;23.75;37.44
77543;BME280;66669;52.100;5.104;2023-02-21T01:07:03;102003.47;;;23.73;37.21
77543;BME280;66669;52.100;5.104;2023-02-21T01:09:47;102007.41;;;23.72;37.22
77543;BME280;66669;52.100;5.104;2023-02-21T01:12:31;101995.09;;;23.76;37.49
77543;BME280;66669;52.100;5.104;2023-02-21T01:15:15;101992.31;;;23.76;36.96
77543;BME280;66669;52.100;5.104;2023-02-21T01:17:59;101992.19;;;23.69;36.89
77543;BME280;66669;52.100;5.104;2023-02-21T01:20:43;101990.81;;;23.63;36.97
77543;BME280;66669;52.100;5.104;2023-02-21T01:23:27;101983.91;;;23.57;36.92
77543;BME280;66669;52.100;5.104;2023-02-21T01:26:10;101987.81;;;23.52;37.03
77543;BME280;66669;52.100;5.104;2023-02-21T01:28:54;101979.72;;;23.47;36.91
77543;BME280;66669;52.100;5.104;2023-02-21T01:31:38;101977.19;;;23.42;37.20
77543;BME280;66669;52.100;5.104;2023-02-21T01:34:22;101971.47;;;23.35;37.24
77543;BME280;66669;52.100;5.104;2023-02-21T01:37:06;101970.59;;;23.31;37.25
77543;BME280;66669;52.100;5.104;2023-02-21T01:39:50;101961.66;;;23.25;37.35
77543;BME280;66669;52.100;5.104;2023-02-21T01:42:34;101958.38;;;23.20;37.44
77543;BME280;66669;52.100;5.104;2023-02-21T01:48:06;101963.78;;;23.12;37.41
77543;BME280;66669;52.100;5.104;2023-02-21T01:50:52;101956.97;;;23.10;37.54
77543;BME280;66669;52.100;5.104;2023-02-21T01:53:37;101954.91;;;23.07;37.52
77543;BME280;66669;52.100;5.104;2023-02-21T01:56:22;101960.41;;;23.03;37.71
77543;BME280;66669;52.100;5.104;2023-02-21T01:59:06;101955.53;;;23.00;37.61
77543;BME280;66669;52.100;5.104;2023-02-21T02:01:52;101962.22;;;22.96;37.52
77543;BME280;66669;52.100;5.104;2023-02-21T02:04:37;101958.19;;;22.93;37.71
77543;BME280;66669;52.100;5.104;2023-02-21T02:07:21;101961.34;;;22.91;37.74
77543;BME280;66669;52.100;5.104;2023-02-21T02:10:07;101964.84;;;22.88;37.79
77543;BME280;66669;52.100;5.104;2023-02-21T02:13:03;101962.88;;;22.89;37.90
77543;BME280;66669;52.100;5.104;2023-02-21T02:15:42;101954.03;;;22.87;37.86
77543;BME280;66669;52.100;5.104;2023-02-21T02:37:09;101950.91;;;22.73;37.99
77543;BME280;66669;52.100;5.104;2023-02-21T02:45:21;101938.47;;;22.70;37.94
77543;BME280;66669;52.100;5.104;2023-02-21T02:48:00;101942.00;;;22.67;37.94
77543;BME280;66669;52.100;5.104;2023-02-21T02:50:28;101939.22;;;22.67;38.08
77543;BME280;66669;52.100;5.104;2023-02-21T02:52:55;101943.97;;;22.66;38.06
77543;BME280;66669;52.100;5.104;2023-02-21T02:55:38;101945.97;;;22.66;38.14
77543;BME280;66669;52.100;5.104;2023-02-21T02:58:05;101945.97;;;22.66;38.11
77543;BME280;66669;52.100;5.104;2023-02-21T03:00:33;101944.34;;;22.65;37.99
77543;BME280;66669;52.100;5.104;2023-02-21T03:06:29;101934.69;;;22.62;38.09
77543;BME280;66669;52.100;5.104;2023-02-21T03:09:14;101928.69;;;22.60;38.05
77543;BME280;66669;52.100;5.104;2023-02-21T03:12:05;101933.81;;;22.58;38.00
77543;BME280;66669;52.100;5.104;2023-02-21T03:15:04;101936.59;;;22.58;38.00
77543;BME280;66669;52.100;5.104;2023-02-21T03:17:33;101931.00;;;22.58;38.09
77543;BME280;66669;52.100;5.104;2023-02-21T03:20:02;101929.41;;;22.57;38.23
77543;BME280;66669;52.100;5.104;2023-02-21T03:22:29;101938.97;;;22.56;38.12
77543;BME280;66669;52.100;5.104;2023-02-21T03:24:57;101938.97;;;22.56;38.26
77543;BME280;66669;52.100;5.104;2023-02-21T03:27:25;101938.16;;;22.56;38.19
77543;BME280;66669;52.100;5.104;2023-02-21T03:29:53;101942.94;;;22.55;38.29
77543;BME280;66669;52.100;5.104;2023-02-21T03:32:33;101948.88;;;22.54;38.24
77543;BME280;66669;52.100;5.104;2023-02-21T03:34:59;101943.66;;;22.52;38.17
77543;BME280;66669;52.100;5.104;2023-02-21T03:40:04;101950.41;;;22.51;38.32
77543;BME280;66669;52.100;5.104;2023-02-21T03:42:30;101944.81;;;22.51;38.31
77543;BME280;66669;52.100;5.104;2023-02-21T03:44:55;101932.84;;;22.51;38.33
77543;BME280;66669;52.100;5.104;2023-02-21T03:47:21;101930.06;;;22.51;38.38
77543;BME280;66669;52.100;5.104;2023-02-21T03:49:46;101932.03;;;22.50;38.20
77543;BME280;66669;52.100;5.104;2023-02-21T03:52:12;101925.63;;;22.50;38.43
77543;BME280;66669;52.100;5.104;2023-02-21T03:54:40;101925.63;;;22.50;38.30
77543;BME280;66669;52.100;5.104;2023-02-21T03:57:06;101934.38;;;22.48;38.25
77543;BME280;66669;52.100;5.104;2023-02-21T03:59:31;101928.34;;;22.46;38.36
77543;BME280;66669;52.100;5.104;2023-02-21T04:01:57;101938.69;;;22.46;38.24
77543;BME280;66669;52.100;5.104;2023-02-21T04:04:22;101933.47;;;22.44;38.32
77543;BME280;66669;52.100;5.104;2023-02-21T04:06:48;101930.31;;;22.46;38.43
77543;BME280;66669;52.100;5.104;2023-02-21T04:09:13;101925.56;;;22.46;38.21
77543;BME280;66669;52.100;5.104;2023-02-21T04:11:42;101929.50;;;22.45;38.34
77543;BME280;66669;52.100;5.104;2023-02-21T04:14:07;101923.09;;;22.45;38.26
77543;BME280;66669;52.100;5.104;2023-02-21T04:16:33;101921.13;;;22.45;38.33
77543;BME280;66669;52.100;5.104;2023-02-21T04:18:58;101925.91;;;22.45;38.43
77543;BME280;66669;52.100;5.104;2023-02-21T04:21:24;101918.25;;;22.41;38.32
77543;BME280;66669;52.100;5.104;2023-02-21T04:23:49;101912.66;;;22.41;38.49
77543;BME280;66669;52.100;5.104;2023-02-21T04:26:15;101914.28;;;22.42;38.41
77543;BME280;66669;52.100;5.104;2023-02-21T04:28:41;101922.69;;;22.42;38.48
77543;BME280;66669;52.100;5.104;2023-02-21T04:31:06;101922.69;;;22.42;38.27
77543;BME280;66669;52.100;5.104;2023-02-21T04:33:31;101919.88;;;22.42;38.43
77543;BME280;66669;52.100;5.104;2023-02-21T04:35:57;101919.50;;;22.44;38.48
77543;BME280;66669;52.100;5.104;2023-02-21T04:38:22;101925.09;;;22.44;38.41
77543;BME280;66669;52.100;5.104;2023-02-21T04:40:47;101925.47;;;22.42;38.41
77543;BME280;66669;52.100;5.104;2023-02-21T04:43:13;101914.63;;;22.41;38.33
77543;BME280;66669;52.100;5.104;2023-02-21T04:45:38;101917.00;;;22.39;38.47
77543;BME280;66669;52.100;5.104;2023-02-21T04:48:04;101909.34;;;22.36;38.34
77543;BME280;66669;52.100;5.104;2023-02-21T04:50:29;101905.38;;;22.37;38.49
77543;BME280;66669;52.100;5.104;2023-02-21T04:52:55;101908.97;;;22.37;38.26
77543;BME280;66669;52.100;5.104;2023-02-21T04:55:20;101907.00;;;22.38;38.49
77543;BME280;66669;52.100;5.104;2023-02-21T04:57:45;101900.59;;;22.37;38.38
77543;BME280;66669;52.100;5.104;2023-02-21T05:00:11;101902.56;;;22.37;38.39
77543;BME280;66669;52.100;5.104;2023-02-21T05:02:41;101894.19;;;22.37;38.41
77543;BME280;66669;52.100;5.104;2023-02-21T05:05:07;101910.94;;;22.37;38.33
77543;BME280;66669;52.100;5.104;2023-02-21T05:07:33;101910.53;;;22.35;38.41
77543;BME280;66669;52.100;5.104;2023-02-21T05:09:58;101916.47;;;22.33;38.47
77543;BME280;66669;52.100;5.104;2023-02-21T05:12:23;101908.09;;;22.33;38.52
77543;BME280;66669;52.100;5.104;2023-02-21T05:14:49;101905.31;;;22.33;38.46
77543;BME280;66669;52.100;5.104;2023-02-21T05:17:14;101910.53;;;22.35;38.50
77543;BME280;66669;52.100;5.104;2023-02-21T05:19:40;101905.31;;;22.33;38.48
77543;BME280;66669;52.100;5.104;2023-02-21T05:22:05;101898.88;;;22.33;38.42
77543;BME280;66669;52.100;5.104;2023-02-21T05:24:32;101894.13;;;22.33;38.49
77543;BME280;66669;52.100;5.104;2023-02-21T05:26:57;101910.06;;;22.33;38.38
77543;BME280;66669;52.100;5.104;2023-02-21T05:29:23;101911.69;;;22.34;38.37
77543;BME280;66669;52.100;5.104;2023-02-21T05:31:49;101920.41;;;22.32;38.50
77543;BME280;66669;52.100;5.104;2023-02-21T05:34:20;101924.38;;;22.31;38.51
77543;BME280;66669;52.100;5.104;2023-02-21T05:36:46;101906.81;;;22.31;38.50
77543;BME280;66669;52.100;5.104;2023-02-21T05:39:11;101907.63;;;22.31;38.60
77543;BME280;66669;52.100;5.104;2023-02-21T05:41:36;101903.66;;;22.32;38.39
77543;BME280;66669;52.100;5.104;2023-02-21T05:44:02;101918.81;;;22.31;38.48
77543;BME280;66669;52.100;5.104;2023-02-21T05:46:31;101925.19;;;22.32;38.55
77543;BME280;66669;52.100;5.104;2023-02-21T05:48:58;101923.59;;;22.31;38.43
77543;BME280;66669;52.100;5.104;2023-02-21T05:51:24;101918.81;;;22.31;38.52
77543;BME280;66669;52.100;5.104;2023-02-21T05:53:50;101914.41;;;22.30;38.42
77543;BME280;66669;52.100;5.104;2023-02-21T05:56:17;101913.59;;;22.30;38.50
77543;BME280;66669;52.100;5.104;2023-02-21T05:58:43;101910.34;;;22.28;38.40
77543;BME280;66669;52.100;5.104;2023-02-21T06:01:08;101921.16;;;22.29;38.58
77543;BME280;66669;52.100;5.104;2023-02-21T06:03:33;101921.97;;;22.30;38.47
77543;BME280;66669;52.100;5.104;2023-02-21T06:05:59;101930.34;;;22.30;38.47
77543;BME280;66669;52.100;5.104;2023-02-21T06:08:25;101935.13;;;22.29;38.50
77543;BME280;66669;52.100;5.104;2023-02-21T06:10:51;101933.16;;;22.30;38.54
77543;BME280;66669;52.100;5.104;2023-02-21T06:13:16;101933.16;;;22.30;38.47
77543;BME280;66669;52.100;5.104;2023-02-21T06:15:42;101927.91;;;22.28;38.45
77543;BME280;66669;52.100;5.104;2023-02-21T06:18:07;101922.31;;;22.28;38.49
77543;BME280;66669;52.100;5.104;2023-02-21T06:20:32;101927.47;;;22.26;38.44
77543;BME280;66669;52.100;5.104;2023-02-21T06:22:58;101921.06;;;22.26;38.58
77543;BME280;66669;52.100;5.104;2023-02-21T06:25:23;101925.47;;;22.27;38.49
77543;BME280;66669;52.100;5.104;2023-02-21T06:27:49;101933.84;;;22.27;38.45
77543;BME280;66669;52.100;5.104;2023-02-21T06:30:14;101928.28;;;22.27;38.41
77543;BME280;66669;52.100;5.104;2023-02-21T06:32:41;101925.84;;;22.25;38.54
77543;BME280;66669;52.100;5.104;2023-02-21T06:35:06;101928.66;;;22.25;38.46
77543;BME280;66669;52.100;5.104;2023-02-21T06:37:32;101928.66;;;22.25;38.62
77543;BME280;66669;52.100;5.104;2023-02-21T06:39:57;101923.88;;;22.26;38.62
77543;BME280;66669;52.100;5.104;2023-02-21T06:42:23;101930.59;;;22.25;38.64
77543;BME280;66669;52.100;5.104;2023-02-21T06:44:49;101932.97;;;22.23;38.48
77543;BME280;66669;52.100;5.104;2023-02-21T06:47:15;101939.34;;;22.23;38.57
77543;BME280;66669;52.100;5.104;2023-02-21T06:49:40;101943.75;;;22.24;38.42
77543;BME280;66669;52.100;5.104;2023-02-21T06:52:06;101948.53;;;22.24;38.56
77543;BME280;66669;52.100;5.104;2023-02-21T06:54:32;101938.97;;;22.25;38.53
77543;BME280;66669;52.100;5.104;2023-02-21T06:56:58;101937.03;;;22.25;38.60
77543;BME280;66669;52.100;5.104;2023-02-21T06:59:28;101936.19;;;22.25;38.42
77543;BME280;66669;52.100;5.104;2023-02-21T07:01:55;101938.97;;;22.25;38.41
77543;BME280;66669;52.100;5.104;2023-02-21T07:04:21;101938.16;;;22.24;38.70
77543;BME280;66669;52.100;5.104;2023-02-21T07:06:46;101942.16;;;22.23;38.53
77543;BME280;66669;52.100;5.104;2023-02-21T07:09:11;101941.34;;;22.23;38.43
77543;BME280;66669;52.100;5.104;2023-02-21T07:11:37;101942.94;;;22.24;38.49
77543;BME280;66669;52.100;5.104;2023-02-21T07:14:03;101929.34;;;22.22;38.56
77543;BME280;66669;52.100;5.104;2023-02-21T07:16:28;101927.75;;;22.21;38.44
77543;BME280;66669;52.100;5.104;2023-02-21T07:18:54;101934.13;;;22.22;38.50
77543;BME280;66669;52.100;5.104;2023-02-21T07:21:20;101929.72;;;22.21;38.48
77543;BME280;66669;52.100;5.104;2023-02-21T07:23:46;101936.13;;;22.21;38.54
77543;BME280;66669;52.100;5.104;2023-02-21T07:26:13;101931.34;;;22.22;38.57
77543;BME280;66669;52.100;5.104;2023-02-21T07:28:39;101934.84;;;22.19;38.56
77543;BME280;66669;52.100;5.104;2023-02-21T07:31:04;101931.25;;;22.18;38.49
77543;BME280;66669;52.100;5.104;2023-02-21T07:33:30;101931.25;;;22.18;38.64
77543;BME280;66669;52.100;5.104;2023-02-21T07:35:55;101936.47;;;22.20;38.48
77543;BME280;66669;52.100;5.104;2023-02-21T07:38:25;101932.06;;;22.19;38.55
77543;BME280;66669;52.100;5.104;2023-02-21T07:41:00;101930.88;;;22.20;38.46
77543;BME280;66669;52.100;5.104;2023-02-21T07:43:26;101928.09;;;22.20;38.47
77543;BME280;66669;52.100;5.104;2023-02-21T07:45:52;101935.66;;;22.19;38.50
77543;BME280;66669;52.100;5.104;2023-02-21T07:48:17;101942.03;;;22.20;38.65
77543;BME280;66669;52.100;5.104;2023-02-21T07:50:43;101936.84;;;22.18;38.52
77543;BME280;66669;52.100;5.104;2023-02-21T07:53:10;101947.53;;;22.16;38.58
77543;BME280;66669;52.100;5.104;2023-02-21T07:55:36;101946.72;;;22.15;38.78
77543;BME280;66669;52.100;5.104;2023-02-21T07:58:02;101939.25;;;22.20;38.96
77543;BME280;66669;52.100;5.104;2023-02-21T08:00:27;101935.47;;;22.28;39.74
77543;BME280;66669;52.100;5.104;2023-02-21T08:02:53;101943.75;;;22.40;39.60
77543;BME280;66669;52.100;5.104;2023-02-21T08:05:19;101944.22;;;22.42;40.29
77543;BME280;66669;52.100;5.104;2023-02-21T08:07:45;101950.22;;;22.44;40.56
77543;BME280;66669;52.100;5.104;2023-02-21T08:10:12;101950.69;;;22.46;40.56
77543;BME280;66669;52.100;5.104;2023-02-21T08:12:38;101950.31;;;22.48;40.36
77543;BME280;66669;52.100;5.104;2023-02-21T08:15:04;101959.97;;;22.50;40.19
77543;BME280;66669;52.100;5.104;2023-02-21T08:17:30;101960.41;;;22.52;40.30
77543;BME280;66669;52.100;5.104;2023-02-21T08:19:56;101956.91;;;22.55;40.48
77543;BME280;66669;52.100;5.104;2023-02-21T08:22:21;101964.19;;;22.60;40.27
77543;BME280;66669;52.100;5.104;2023-02-21T08:24:49;101956.25;;;22.62;40.12
77543;BME280;66669;52.100;5.104;2023-02-21T08:27:16;101955.09;;;22.63;39.99
77543;BME280;66669;52.100;5.104;2023-02-21T08:29:41;101956.31;;;22.65;39.85
77543;BME280;66669;52.100;5.104;2023-02-21T08:32:07;101954.81;;;22.68;39.75
77543;BME280;66669;52.100;5.104;2023-02-21T08:34:33;101954.06;;;22.71;39.52
77543;BME280;66669;52.100;5.104;2023-02-21T08:36:58;101951.34;;;22.75;39.42
77543;BME280;66669;52.100;5.104;2023-02-21T08:39:24;101953.88;;;22.80;39.25
77543;BME280;66669;52.100;5.104;2023-02-21T08:41:54;101947.53;;;22.83;39.26
77543;BME280;66669;52.100;5.104;2023-02-21T08:44:20;101945.19;;;22.85;39.21
77543;BME280;66669;52.100;5.104;2023-02-21T08:46:48;101949.25;;;22.87;39.29
77543;BME280;66669;52.100;5.104;2023-02-21T08:49:14;101946.91;;;22.89;39.22
77543;BME280;66669;52.100;5.104;2023-02-21T08:51:39;101949.69;;;22.89;39.08
77543;BME280;66669;52.100;5.104;2023-02-21T08:54:06;101946.22;;;22.93;39.09
77543;BME280;66669;52.100;5.104;2023-02-21T08:56:32;101933.03;;;22.93;38.92
77543;BME280;66669;52.100;5.104;2023-02-21T08:58:58;101932.66;;;22.95;38.79
77543;BME280;66669;52.100;5.104;2023-02-21T09:01:29;101942.75;;;22.99;38.34
77543;BME280;66669;52.100;5.104;2023-02-21T09:03:55;101937.59;;;23.01;38.26
77543;BME280;66669;52.100;5.104;2023-02-21T09:06:20;101934.81;;;23.01;37.96
77543;BME280;66669;52.100;5.104;2023-02-21T09:08:46;101941.56;;;23.00;37.86
77543;BME280;66669;52.100;5.104;2023-02-21T09:11:11;101939.22;;;23.02;37.92
77543;BME280;66669;52.100;5.104;2023-02-21T09:13:36;101933.63;;;23.02;37.77
77543;BME280;66669;52.100;5.104;2023-02-21T09:16:02;101934.81;;;23.01;37.84
77543;BME280;66669;52.100;5.104;2023-02-21T09:18:28;101932.03;;;23.01;37.78
77543;BME280;66669;52.100;5.104;2023-02-21T09:20:55;101931.63;;;23.03;37.81
77543;BME280;66669;52.100;5.104;2023-02-21T09:23:23;101926.03;;;23.03;37.72
77543;BME280;66669;52.100;5.104;2023-02-21T09:25:50;101921.63;;;23.02;37.67
77543;BME280;66669;52.100;5.104;2023-02-21T09:28:16;101920.47;;;23.03;37.74
77543;BME280;66669;52.100;5.104;2023-02-21T09:30:42;101917.28;;;23.04;37.78
77543;BME280;66669;52.100;5.104;2023-02-21T09:33:08;101922.88;;;23.04;37.83
77543;BME280;66669;52.100;5.104;2023-02-21T09:35:34;101921.25;;;23.03;37.75
77543;BME280;66669;52.100;5.104;2023-02-21T09:38:00;101926.03;;;23.03;37.71
77543;BME280;66669;52.100;5.104;2023-02-21T09:40:47;101918.03;;;23.01;37.88
77543;BME280;66669;52.100;5.104;2023-02-21T09:45:42;101902.38;;;22.97;37.73
77543;BME280;66669;52.100;5.104;2023-02-21T09:48:14;101901.09;;;22.94;37.84
77543;BME280;66669;52.100;5.104;2023-02-21T09:50:45;101912.28;;;22.94;37.72
77543;BME280;66669;52.100;5.104;2023-02-21T09:53:16;101905.09;;;22.93;37.81
77543;BME280;66669;52.100;5.104;2023-02-21T09:55:43;101902.63;;;22.91;37.93
77543;BME280;66669;52.100;5.104;2023-02-21T09:58:13;101905.81;;;22.90;37.94
77543;BME280;66669;52.100;5.104;2023-02-21T10:00:40;101903.00;;;22.90;37.82
77543;BME280;66669;52.100;5.104;2023-02-21T10:03:22;101905.81;;;22.90;37.92
77543;BME280;66669;52.100;5.104;2023-02-21T10:08:33;101895.78;;;22.89;37.94
77543;BME280;66669;52.100;5.104;2023-02-21T10:11:36;101898.13;;;22.87;38.02
77543;BME280;66669;52.100;5.104;2023-02-21T10:17:21;101895.31;;;22.87;37.87
77543;BME280;66669;52.100;5.104;2023-02-21T10:19:53;101899.28;;;22.86;37.91
77543;BME280;66669;52.100;5.104;2023-02-21T10:22:22;101900.47;;;22.85;38.04
77543;BME280;66669;52.100;5.104;2023-02-21T10:24:49;101899.69;;;22.84;38.05
77543;BME280;66669;52.100;5.104;2023-02-21T10:27:20;101899.22;;;22.82;38.06
77543;BME280;66669;52.100;5.104;2023-02-21T10:30:03;101898.03;;;22.83;38.08
77543;BME280;66669;52.100;5.104;2023-02-21T10:32:30;101899.69;;;22.84;38.11
77543;BME280;66669;52.100;5.104;2023-02-21T10:34:56;101897.22;;;22.83;38.05
77543;BME280;66669;52.100;5.104;2023-02-21T10:43:43;101904.81;;;22.82;38.17
77543;BME280;66669;52.100;5.104;2023-02-21T10:46:22;101900.81;;;22.83;38.02
77543;BME280;66669;52.100;5.104;2023-02-21T10:48:52;101904.00;;;22.82;38.10
77543;BME280;66669;52.100;5.104;2023-02-21T10:51:31;101903.19;;;22.81;38.12
77543;BME280;66669;52.100;5.104;2023-02-21T10:54:17;101914.00;;;22.83;38.17
77543;BME280;66669;52.100;5.104;2023-02-21T10:56:44;101900.03;;;22.83;38.04
77543;BME280;66669;52.100;5.104;2023-02-21T10:59:27;101904.47;;;22.84;38.16
77543;BME280;66669;52.100;5.104;2023-02-21T11:01:54;101912.84;;;22.84;38.11
77543;BME280;66669;52.100;5.104;2023-02-21T11:06:58;101907.59;;;22.82;38.18
77543;BME280;66669;52.100;5.104;2023-02-21T11:12:04;101897.59;;;22.81;38.17
77543;BME280;66669;52.100;5.104;2023-02-21T11:14:31;101896.41;;;22.82;38.22
77543;BME280;66669;52.100;5.104;2023-02-21T11:17:19;101894.00;;;22.81;38.20
77543;BME280;66669;52.100;5.104;2023-02-21T11:22:38;101897.22;;;22.83;38.08
77543;BME280;66669;52.100;5.104;2023-02-21T11:25:26;101894.00;;;22.81;38.19
77543;BME280;66669;52.100;5.104;2023-02-21T11:30:38;101891.22;;;22.81;38.15
77543;BME280;66669;52.100;5.104;2023-02-21T11:33:07;101892.00;;;22.81;38.10
77543;BME280;66669;52.100;5.104;2023-02-21T11:35:37;101886.81;;;22.80;38.17
77543;BME280;66669;52.100;5.104;2023-02-21T11:38:06;101883.63;;;22.81;38.13
77543;BME280;66669;52.100;5.104;2023-02-21T11:40:42;101889.59;;;22.80;38.07
77543;BME280;66669;52.100;5.104;2023-02-21T11:45:44;101881.63;;;22.82;37.95
77543;BME280;66669;52.100;5.104;2023-02-21T11:48:14;101883.25;;;22.83;37.96
77543;BME280;66669;52.100;5.104;2023-02-21T11:50:47;101882.81;;;22.81;38.14
77543;BME280;66669;52.100;5.104;2023-02-21T11:53:30;101884.81;;;22.80;38.09
77543;BME280;66669;52.100;5.104;2023-02-21T12:01:27;101878.84;;;22.82;38.18
77543;BME280;66669;52.100;5.104;2023-02-21T12:06:53;101873.25;;;22.82;38.09
77543;BME280;66669;52.100;5.104;2023-02-21T12:09:43;101877.66;;;22.83;38.02
77543;BME280;66669;52.100;5.104;2023-02-21T12:17:48;101871.25;;;22.82;37.97
77543;BME280;66669;52.100;5.104;2023-02-21T12:20:36;101864.88;;;22.82;38.15
77543;BME280;66669;52.100;5.104;2023-02-21T12:23:20;101863.25;;;22.81;38.05
77543;BME280;66669;52.100;5.104;2023-02-21T12:26:19;101852.06;;;22.81;38.03
77543;BME280;66669;52.100;5.104;2023-02-21T12:28:52;101853.69;;;22.82;38.06
77543;BME280;66669;52.100;5.104;2023-02-21T12:34:05;101855.31;;;22.83;37.97
77543;BME280;66669;52.100;5.104;2023-02-21T12:36:46;101859.75;;;22.84;37.92
77543;BME280;66669;52.100;5.104;2023-02-21T12:44:56;101852.50;;;22.83;38.22
77543;BME280;66669;52.100;5.104;2023-02-21T12:47:31;101849.72;;;22.83;37.98
77543;BME280;66669;52.100;5.104;2023-02-21T12:50:53;101847.38;;;22.85;37.96
77543;BME280;66669;52.100;5.104;2023-02-21T12:52:58;101862.84;;;22.44;39.30
77543;BME280;66669;52.100;5.104;2023-02-21T12:55:34;101849.19;;;21.75;40.51
77543;BME280;66669;52.100;5.104;2023-02-21T13:01:22;101846.09;;;21.05;42.53
77543;BME280;66669;52.100;5.104;2023-02-21T13:07:29;101847.78;;;20.81;43.30
77543;BME280;66669;52.100;5.104;2023-02-21T13:10:18;101847.44;;;20.83;44.03
77543;BME280;66669;52.100;5.104;2023-02-21T13:12:49;101847.22;;;20.76;43.96
77543;BME280;66669;52.100;5.104;2023-02-21T13:15:22;101840.63;;;20.68;43.94
77543;BME280;66669;52.100;5.104;2023-02-21T13:17:54;101830.22;;;20.65;44.04
77543;BME280;66669;52.100;5.104;2023-02-21T13:20:21;101834.88;;;20.61;44.06
77543;BME280;66669;52.100;5.104;2023-02-21T13:23:04;101838.91;;;20.63;44.03
77543;BME280;66669;52.100;5.104;2023-02-21T13:28:23;101826.16;;;20.62;43.99
77543;BME280;66669;52.100;5.104;2023-02-21T13:30:52;101830.09;;;20.61;44.10
77543;BME280;66669;52.100;5.104;2023-02-21T13:33:25;101828.94;;;20.62;43.93
77543;BME280;66669;52.100;5.104;2023-02-21T13:35:51;101809.28;;;20.71;43.97
77543;BME280;66669;52.100;5.104;2023-02-21T13:38:18;101821.00;;;20.77;43.93
77543;BME280;66669;52.100;5.104;2023-02-21T13:41:06;101814.81;;;20.83;43.76
77543;BME280;66669;52.100;5.104;2023-02-21T13:43:35;101819.84;;;20.78;43.84
77543;BME280;66669;52.100;5.104;2023-02-21T13:51:52;101812.19;;;20.75;43.81
77543;BME280;66669;52.100;5.104;2023-02-21T13:54:23;101802.81;;;20.67;43.90
77543;BME280;66669;52.100;5.104;2023-02-21T13:56:48;101801.41;;;20.73;44.08
77543;BME280;66669;52.100;5.104;2023-02-21T13:59:32;101800.34;;;20.78;43.89
77543;BME280;66669;52.100;5.104;2023-02-21T14:02:33;101804.28;;;20.77;44.06
77543;BME280;66669;52.100;5.104;2023-02-21T14:05:03;101804.03;;;20.82;43.99
77543;BME280;66669;52.100;5.104;2023-02-21T14:08:07;101799.97;;;20.79;43.71
77543;BME280;66669;52.100;5.104;2023-02-21T14:10:47;101799.88;;;20.76;43.83
77543;BME280;66669;52.100;5.104;2023-02-21T14:16:15;101797.25;;;20.67;43.92
77543;BME280;66669;52.100;5.104;2023-02-21T14:18:43;101798.84;;;20.68;44.58
77543;BME280;66669;52.100;5.104;2023-02-21T14:23:49;101797.25;;;20.67;44.12
77543;BME280;66669;52.100;5.104;2023-02-21T14:26:38;101800.50;;;20.69;44.33
77543;BME280;66669;52.100;5.104;2023-02-21T14:31:46;101794.25;;;20.88;44.19
77543;BME280;66669;52.100;5.104;2023-02-21T14:39:46;101788.31;;;20.89;43.83
77543;BME280;66669;52.100;5.104;2023-02-21T14:45:25;101780.44;;;20.91;44.37
77543;BME280;66669;52.100;5.104;2023-02-21T15:06:58;101782.28;;;21.15;43.90
77543;BME280;66669;52.100;5.104;2023-02-21T15:09:25;101773.28;;;21.22;43.84
77543;BME280;66669;52.100;5.104;2023-02-21T15:11:50;101774.09;;;21.23;43.82
77543;BME280;66669;52.100;5.104;2023-02-21T15:14:27;101774.91;;;21.23;43.23
77543;BME280;66669;52.100;5.104;2023-02-21T15:16:56;101776.88;;;21.23;43.44
77543;BME280;66669;52.100;5.104;2023-02-21T15:19:34;101775.78;;;21.27;43.40
77543;BME280;66669;52.100;5.104;2023-02-21T15:22:24;101780.56;;;21.27;43.30
77543;BME280;66669;52.100;5.104;2023-02-21T15:27:34;101774.81;;;21.20;42.98
77543;BME280;66669;52.100;5.104;2023-02-21T15:30:53;101773.19;;;21.18;43.29
77543;BME280;66669;52.100;5.104;2023-02-21T15:33:05;101776.53;;;21.24;43.55